Terminal Aerodrome Forecast
Issued by NWS Charleston, WV

Home | Current Version | Previous Version | Text Only | Print | Product List | Glossary On
Versions: 1 2 3 4 5 6 7 8 9 10 11 12 13 14 15 16 17 18 19 20 21 22 23 24
000
FTUS41 KRLX 050327 AAA
TAFBKW
TAF AMD
KBKW 050327Z 0503/0524 16007KT 6SM -SHRA OVC007
     FM050500 18005KT 5SM -SHRA OVC004
     FM051100 28005KT P6SM BKN005
     FM051300 30005KT P6SM BKN007
     FM051600 31004KT P6SM BKN016
     FM051700 32004KT P6SM BKN090=

USA.gov is the U.S. government's official web portal to all federal, state and local government web resources and services.